Time;durP1;ratioP1;P1;durP2;ratioP2;P2;SDS_P1;SDS_P2;PMS_P1;PMS_P2;Temp;Humidity;BMP_temperature;BMP_pressure;BME280_temperature;BME280_humidity;BME280_pressure;Samples;Min_cycle;Max_cycle;Signal;HPM_P1;HPM_P2
2023/03/27 00:00:15;;;;;;;17.48;3.97;;;13.80;96.70;;;;;;5008468;28;20418;-72
2023/03/27 00:02:45;;;;;;;22.65;4.35;;;13.80;96.70;;;;;;4993322;28;20046;-72
2023/03/27 00:05:15;;;;;;;19.70;3.88;;;13.80;96.70;;;;;;5002540;28;20050;-71
2023/03/27 00:07:44;;;;;;;21.33;3.70;;;13.90;96.70;;;;;;4988504;28;20119;-72
2023/03/27 00:10:12;;;;;;;18.35;3.25;;;13.90;96.70;;;;;;5014100;28;20520;-72
2023/03/27 00:12:40;;;;;;;14.23;2.55;;;13.90;96.70;;;;;;4987300;28;20045;-71
2023/03/27 00:15:14;;;;;;;17.90;3.20;;;13.90;96.70;;;;;;5001498;28;20084;-71
2023/03/27 00:17:45;;;;;;;17.15;3.22;;;13.90;96.70;;;;;;4995157;28;20145;-71
2023/03/27 00:20:14;;;;;;;17.88;3.05;;;14.00;96.70;;;;;;4974233;28;20050;-71
2023/03/27 00:22:43;;;;;;;19.80;2.80;;;14.10;96.70;;;;;;4999150;28;20516;-72
2023/03/27 00:25:11;;;;;;;12.88;2.90;;;14.10;96.70;;;;;;5012925;28;20382;-71
2023/03/27 00:27:42;;;;;;;15.90;2.90;;;14.10;96.70;;;;;;5019190;28;20049;-71
2023/03/27 00:30:11;;;;;;;10.52;2.08;;;14.20;96.70;;;;;;5012936;28;20042;-71
2023/03/27 00:32:39;;;;;;;16.40;2.80;;;14.20;96.70;;;;;;5008999;28;20048;-71
2023/03/27 00:35:08;;;;;;;10.40;2.28;;;14.20;96.70;;;;;;5006607;28;20057;-72
2023/03/27 00:37:36;;;;;;;12.05;2.65;;;14.20;96.70;;;;;;5003138;28;20546;-72
2023/03/27 00:40:12;;;;;;;13.07;2.47;;;14.20;96.70;;;;;;4987290;28;20391;-72
2023/03/27 00:42:40;;;;;;;10.97;3.10;;;14.20;96.70;;;;;;5000024;28;20522;-72
2023/03/27 00:45:16;;;;;;;15.90;3.45;;;14.20;96.70;;;;;;5000392;28;20088;-72
2023/03/27 00:47:46;;;;;;;15.90;2.58;;;14.20;96.70;;;;;;4986467;28;20045;-72
2023/03/27 00:50:20;;;;;;;13.57;2.17;;;14.20;96.70;;;;;;5001627;28;20060;-72
2023/03/27 00:52:52;;;;;;;12.85;2.65;;;14.20;96.70;;;;;;5003417;28;20087;-72
2023/03/27 00:55:25;;;;;;;11.82;2.08;;;14.20;96.70;;;;;;4987476;28;20046;-72
2023/03/27 00:57:58;;;;;;;12.68;2.22;;;14.30;96.70;;;;;;4997589;28;20408;-72
2023/03/27 01:00:27;;;;;;;15.50;2.53;;;14.30;96.70;;;;;;5000218;28;20491;-72
2023/03/27 01:02:55;;;;;;;15.13;3.17;;;14.40;96.70;;;;;;4997047;28;20073;-72
2023/03/27 01:05:28;;;;;;;15.23;3.28;;;14.30;96.70;;;;;;5021523;28;20064;-72
2023/03/27 01:07:56;;;;;;;13.70;2.60;;;14.30;96.70;;;;;;5001487;28;20034;-72
2023/03/27 01:10:42;;;;;;;13.88;2.47;;;14.30;96.70;;;;;;4995614;28;20053;-72
2023/03/27 01:13:24;;;;;;;12.93;2.45;;;14.30;96.70;;;;;;5020401;28;20045;-72
2023/03/27 01:15:57;;;;;;;12.70;2.92;;;14.30;96.70;;;;;;4997758;28;20050;-71
2023/03/27 01:18:40;;;;;;;11.27;2.38;;;14.20;96.70;;;;;;4998041;28;20680;-72
2023/03/27 01:21:37;;;;;;;20.60;3.08;;;14.20;96.70;;;;;;5014852;28;20053;-72
2023/03/27 01:24:40;;;;;;;13.00;2.78;;;14.20;96.70;;;;;;4988942;28;20053;-71
2023/03/27 01:27:17;;;;;;;15.23;2.38;;;14.10;96.70;;;;;;4992375;28;20465;-72
2023/03/27 01:30:02;;;;;;;16.35;2.42;;;14.00;96.70;;;;;;4999350;28;20041;-72
2023/03/27 01:33:20;;;;;;;15.68;2.58;;;14.00;96.70;;;;;;4988977;28;20920;-72
2023/03/27 01:36:21;;;;;;;11.80;2.95;;;14.00;96.70;;;;;;4953615;28;20114;-72
2023/03/27 01:39:15;;;;;;;12.93;2.30;;;13.90;96.70;;;;;;4943648;28;20054;-72
2023/03/27 01:41:50;;;;;;;7.72;1.95;;;13.90;96.70;;;;;;4955804;28;20162;-72
2023/03/27 01:44:28;;;;;;;8.98;1.70;;;13.90;96.70;;;;;;4945796;28;20496;-72
2023/03/27 01:47:21;;;;;;;16.77;2.72;;;13.90;96.70;;;;;;4945760;28;20141;-72
2023/03/27 01:49:54;;;;;;;14.80;2.00;;;13.90;96.70;;;;;;4959848;28;20134;-72
2023/03/27 01:52:28;;;;;;;9.07;1.90;;;13.90;96.70;;;;;;4955131;28;20660;-72
2023/03/27 01:55:03;;;;;;;12.02;2.28;;;14.00;96.70;;;;;;4960649;28;20738;-72
2023/03/27 01:57:40;;;;;;;7.35;2.35;;;14.10;96.70;;;;;;4945504;28;20042;-72
2023/03/27 02:00:21;;;;;;;9.73;1.95;;;14.10;96.70;;;;;;4941890;28;20194;-71
2023/03/27 02:02:53;;;;;;;9.40;1.55;;;14.10;96.70;;;;;;4960606;28;20559;-71
2023/03/27 02:05:25;;;;;;;9.70;1.65;;;14.10;96.70;;;;;;4956871;28;20050;-72
2023/03/27 02:07:58;;;;;;;9.15;1.83;;;14.20;96.70;;;;;;4995083;28;20046;-71
2023/03/27 02:10:32;;;;;;;11.88;1.63;;;14.10;96.70;;;;;;4983092;28;20046;-72
2023/03/27 02:13:13;;;;;;;10.63;2.10;;;14.10;96.70;;;;;;5003109;28;20056;-72
2023/03/27 02:15:44;;;;;;;9.15;1.65;;;14.00;96.70;;;;;;5001265;28;20050;-73
2023/03/27 02:18:18;;;;;;;10.98;1.85;;;14.00;96.70;;;;;;5007053;28;20548;-72
2023/03/27 02:20:46;;;;;;;9.65;1.83;;;14.00;96.70;;;;;;4994812;28;20532;-72
2023/03/27 02:23:14;;;;;;;11.18;2.08;;;14.00;96.70;;;;;;5002480;28;20048;-71
2023/03/27 02:25:45;;;;;;;9.93;2.13;;;14.00;96.70;;;;;;5004997;28;20054;-72
2023/03/27 02:28:35;;;;;;;8.30;1.42;;;13.90;96.70;;;;;;4982105;28;20054;-72
2023/03/27 02:31:14;;;;;;;8.73;1.70;;;13.90;96.70;;;;;;4986702;28;20073;-72
2023/03/27 02:34:20;;;;;;;14.32;1.77;;;13.90;96.70;;;;;;5003719;28;20048;-71
2023/03/27 02:37:15;;;;;;;12.23;2.28;;;13.90;96.70;;;;;;4984376;28;20050;-71
2023/03/27 02:40:13;;;;;;;11.70;1.83;;;13.90;96.70;;;;;;4965001;28;20064;-72
2023/03/27 02:42:57;;;;;;;7.57;1.83;;;13.80;96.70;;;;;;4993424;28;20053;-72
2023/03/27 02:45:35;;;;;;;10.38;1.80;;;13.80;96.70;;;;;;4999275;28;20051;-72
2023/03/27 02:48:08;;;;;;;6.15;1.35;;;13.80;96.70;;;;;;5001556;28;20533;-72
2023/03/27 02:50:41;;;;;;;10.95;1.60;;;13.70;96.70;;;;;;5018431;28;20057;-72
2023/03/27 02:53:15;;;;;;;13.40;2.13;;;13.60;96.70;;;;;;5011858;28;20053;-72
2023/03/27 02:55:46;;;;;;;9.27;2.05;;;13.60;96.70;;;;;;5011053;28;20050;-72
2023/03/27 02:58:22;;;;;;;8.40;1.38;;;13.50;96.70;;;;;;4985790;28;20053;-72
2023/03/27 03:01:12;;;;;;;9.50;1.63;;;13.50;96.70;;;;;;4990511;28;20080;-71
2023/03/27 03:04:07;;;;;;;8.98;1.80;;;13.50;96.70;;;;;;4999401;28;20130;-71
2023/03/27 03:06:54;;;;;;;11.20;1.60;;;13.50;96.70;;;;;;4999673;28;20046;-71
2023/03/27 03:09:24;;;;;;;8.98;1.38;;;13.50;96.70;;;;;;5002322;28;20053;-71
2023/03/27 03:11:52;;;;;;;6.93;2.25;;;13.50;96.70;;;;;;4996130;28;20069;-72
2023/03/27 03:14:27;;;;;;;14.25;2.20;;;13.50;96.70;;;;;;4996291;28;20070;-72
2023/03/27 03:16:55;;;;;;;9.90;1.98;;;13.50;96.70;;;;;;5013842;28;20699;-72
2023/03/27 03:19:23;;;;;;;7.53;1.35;;;13.50;96.70;;;;;;5014838;28;20117;-72
2023/03/27 03:21:51;;;;;;;10.25;2.00;;;13.50;96.70;;;;;;4991085;28;20053;-71
2023/03/27 03:24:21;;;;;;;6.70;1.58;;;13.40;96.70;;;;;;5012594;28;20069;-72
2023/03/27 03:26:49;;;;;;;13.07;2.28;;;13.50;96.70;;;;;;5000462;28;20050;-71
2023/03/27 03:29:18;;;;;;;9.48;1.75;;;13.50;96.70;;;;;;5006493;28;20116;-72
2023/03/27 03:32:10;;;;;;;7.82;1.60;;;13.40;96.70;;;;;;4987853;28;20076;-72
2023/03/27 03:34:40;;;;;;;16.48;2.42;;;13.40;96.70;;;;;;4966952;28;20042;-72
2023/03/27 03:37:09;;;;;;;8.98;1.65;;;13.40;96.70;;;;;;4993237;28;20061;-72
2023/03/27 03:39:37;;;;;;;9.90;1.75;;;13.50;96.70;;;;;;4991084;28;20038;-71
2023/03/27 03:42:05;;;;;;;13.32;2.50;;;13.40;96.70;;;;;;4998294;28;20432;-71
2023/03/27 03:44:36;;;;;;;11.65;1.65;;;13.30;96.70;;;;;;5005260;28;20038;-72
2023/03/27 03:47:16;;;;;;;13.80;2.95;;;13.20;96.70;;;;;;4983573;28;20050;-72
2023/03/27 03:49:44;;;;;;;6.80;1.48;;;13.20;96.70;;;;;;4984113;28;20048;-72
2023/03/27 03:52:12;;;;;;;8.73;1.50;;;13.20;96.70;;;;;;4983980;28;20050;-72
2023/03/27 03:54:40;;;;;;;10.05;2.05;;;13.20;96.70;;;;;;4967986;28;20137;-72
2023/03/27 03:57:07;;;;;;;9.90;1.80;;;13.20;96.70;;;;;;4997353;28;20038;-72
2023/03/27 03:59:35;;;;;;;9.75;1.35;;;13.20;96.70;;;;;;4985577;28;20401;-72
2023/03/27 04:02:30;;;;;;;11.63;1.65;;;13.10;96.70;;;;;;4992578;28;20034;-72
2023/03/27 04:05:09;;;;;;;11.05;1.45;;;13.00;96.70;;;;;;4988153;28;20046;-72
2023/03/27 04:07:39;;;;;;;11.32;1.63;;;13.00;96.70;;;;;;5015520;28;20042;-72
2023/03/27 04:10:29;;;;;;;11.52;1.98;;;13.00;96.70;;;;;;4990746;28;20057;-71
2023/03/27 04:13:00;;;;;;;11.65;1.70;;;13.00;96.70;;;;;;5003714;28;20053;-72
2023/03/27 04:15:31;;;;;;;7.68;1.30;;;13.00;96.70;;;;;;4984855;28;20050;-71
2023/03/27 04:18:09;;;;;;;8.57;1.92;;;13.20;96.70;;;;;;4984648;28;20054;-72
2023/03/27 04:20:40;;;;;;;7.22;1.75;;;13.30;96.70;;;;;;4985615;28;20045;-71
2023/03/27 04:23:11;;;;;;;8.52;1.75;;;13.30;96.70;;;;;;4983966;28;20054;-71
2023/03/27 04:25:39;;;;;;;8.50;1.90;;;13.30;96.70;;;;;;4983567;28;20500;-71
2023/03/27 04:28:15;;;;;;;9.85;1.77;;;13.20;96.70;;;;;;4984485;28;20124;-71
2023/03/27 04:30:49;;;;;;;11.38;2.05;;;13.20;96.70;;;;;;4992512;28;20045;-72
2023/03/27 04:33:45;;;;;;;8.73;1.80;;;13.30;96.70;;;;;;4955657;28;20529;-72
2023/03/27 04:36:13;;;;;;;12.23;2.42;;;13.30;96.70;;;;;;4996519;28;20144;-72
2023/03/27 04:38:50;;;;;;;9.00;1.52;;;13.30;96.70;;;;;;5003872;28;20419;-72
2023/03/27 04:41:20;;;;;;;10.70;1.88;;;13.20;96.70;;;;;;4991996;28;20504;-71
2023/03/27 04:43:48;;;;;;;10.55;1.50;;;13.30;96.70;;;;;;4989231;28;20045;-72
2023/03/27 04:46:16;;;;;;;11.23;2.15;;;13.30;96.70;;;;;;5003910;28;20049;-72
2023/03/27 04:48:51;;;;;;;6.97;1.67;;;13.30;96.70;;;;;;4988278;28;20049;-72
2023/03/27 04:51:40;;;;;;;8.70;1.65;;;13.40;96.70;;;;;;4984000;28;20137;-72
2023/03/27 04:54:10;;;;;;;8.88;1.80;;;13.50;96.70;;;;;;5000845;28;20054;-72
2023/03/27 04:56:44;;;;;;;10.05;2.47;;;13.40;96.70;;;;;;4997169;28;20060;-72
2023/03/27 04:59:12;;;;;;;9.30;2.60;;;13.40;96.70;;;;;;5001345;28;20127;-71
2023/03/27 05:01:40;;;;;;;12.45;3.22;;;13.50;96.70;;;;;;4980157;28;20116;-72
2023/03/27 05:04:33;;;;;;;15.15;3.28;;;13.50;96.70;;;;;;4988644;28;20137;-72
2023/03/27 05:07:10;;;;;;;12.13;3.35;;;13.50;96.70;;;;;;5006390;28;20058;-72
2023/03/27 05:09:39;;;;;;;13.00;3.63;;;13.40;96.70;;;;;;5003371;28;20049;-72
2023/03/27 05:12:08;;;;;;;10.50;3.70;;;13.40;96.70;;;;;;4991186;28;20387;-71
2023/03/27 05:14:47;;;;;;;10.80;3.47;;;13.40;96.70;;;;;;4994251;28;20052;-72
2023/03/27 05:17:31;;;;;;;9.75;2.65;;;13.40;96.70;;;;;;4986823;28;20494;-71
2023/03/27 05:20:02;;;;;;;10.25;2.75;;;13.40;96.70;;;;;;5005110;28;20057;-72
2023/03/27 05:22:33;;;;;;;11.27;3.20;;;13.30;96.70;;;;;;4989997;28;20037;-71
2023/03/27 05:25:10;;;;;;;;;;;13.20;96.70;;;;;;4989327;28;20068;-71
2023/03/27 05:27:44;;;;;;;9.35;2.47;;;13.10;96.70;;;;;;5004414;28;20482;-71
2023/03/27 05:30:14;;;;;;;12.00;3.50;;;13.10;96.70;;;;;;4995491;28;20058;-71
2023/03/27 05:32:47;;;;;;;10.70;2.45;;;13.20;96.70;;;;;;5003584;28;20084;-72
2023/03/27 05:35:26;;;;;;;10.50;2.50;;;13.20;96.70;;;;;;4972803;28;20041;-72
2023/03/27 05:37:57;;;;;;;7.53;2.47;;;13.20;96.70;;;;;;4995453;28;20061;-72
2023/03/27 05:40:31;;;;;;;10.00;2.70;;;13.30;96.70;;;;;;4994734;28;20054;-71
2023/03/27 05:43:00;;;;;;;9.98;2.92;;;13.30;96.70;;;;;;4987778;28;20119;-72
2023/03/27 05:45:31;;;;;;;8.70;2.33;;;13.30;96.70;;;;;;4996198;28;20108;-71
2023/03/27 05:48:02;;;;;;;12.35;2.75;;;13.30;96.70;;;;;;5015186;28;20049;-72
2023/03/27 05:50:36;;;;;;;13.55;3.85;;;13.30;96.70;;;;;;5005716;28;20041;-71
2023/03/27 05:53:12;;;;;;;9.32;2.38;;;13.30;96.70;;;;;;4989745;28;20068;-72
2023/03/27 05:55:49;;;;;;;6.82;1.73;;;13.30;96.70;;;;;;4990125;28;20053;-71
2023/03/27 05:58:40;;;;;;;8.98;2.67;;;13.30;96.70;;;;;;4988690;28;21433;-71
2023/03/27 06:01:09;;;;;;;17.33;3.53;;;13.30;96.70;;;;;;4983749;28;20064;-72
2023/03/27 06:03:38;;;;;;;8.90;3.38;;;13.30;96.70;;;;;;4996285;28;20478;-71
2023/03/27 06:06:15;;;;;;;12.55;3.17;;;13.40;96.70;;;;;;5014005;28;20037;-71
2023/03/27 06:08:45;;;;;;;12.73;3.58;;;13.40;96.70;;;;;;5005066;28;20049;-71
2023/03/27 06:11:16;;;;;;;13.18;3.95;;;13.40;96.70;;;;;;4986888;28;20046;-71
2023/03/27 06:13:45;;;;;;;15.88;3.95;;;13.40;96.70;;;;;;4998556;28;20049;-71
2023/03/27 06:16:26;;;;;;;14.10;4.20;;;13.50;96.70;;;;;;4995769;28;20051;-71
2023/03/27 06:19:22;;;;;;;13.32;3.53;;;13.50;96.70;;;;;;4981488;28;20061;-71
2023/03/27 06:21:53;;;;;;;13.90;3.22;;;13.50;96.70;;;;;;4991902;28;20057;-71
2023/03/27 06:24:21;;;;;;;13.07;4.20;;;13.50;96.70;;;;;;5014531;28;20038;-71
2023/03/27 06:26:49;;;;;;;13.75;3.78;;;13.50;96.70;;;;;;4986173;28;20057;-71
2023/03/27 06:29:20;;;;;;;11.43;3.05;;;13.50;96.70;;;;;;5002900;28;20073;-71
2023/03/27 06:31:51;;;;;;;11.30;2.80;;;13.60;96.70;;;;;;5007777;28;20049;-72
2023/03/27 06:34:25;;;;;;;12.23;2.28;;;13.60;96.70;;;;;;4992566;28;20049;-71
2023/03/27 06:37:02;;;;;;;10.73;2.22;;;13.60;96.70;;;;;;5001357;28;20054;-71
2023/03/27 06:39:36;;;;;;;10.50;2.42;;;13.70;96.70;;;;;;4978878;28;20046;-71
2023/03/27 06:42:04;;;;;;;12.00;3.13;;;13.70;96.70;;;;;;5003483;28;20392;-72
2023/03/27 06:44:34;;;;;;;11.50;2.88;;;13.80;96.70;;;;;;4979540;28;20049;-72
2023/03/27 06:47:17;;;;;;;15.07;2.88;;;13.90;96.70;;;;;;5004788;28;20052;-72
2023/03/27 06:49:57;;;;;;;12.65;2.92;;;13.90;96.70;;;;;;5003439;28;20054;-72
2023/03/27 06:52:27;;;;;;;14.10;3.55;;;13.90;96.70;;;;;;4985346;28;20044;-72
2023/03/27 06:55:07;;;;;;;18.80;4.20;;;14.00;96.70;;;;;;4997084;28;20048;-72
2023/03/27 06:57:50;;;;;;;12.65;2.97;;;13.90;96.70;;;;;;4988345;28;20131;-72
2023/03/27 07:00:23;;;;;;;13.18;2.75;;;13.90;96.70;;;;;;4971647;28;20419;-71
2023/03/27 07:03:10;;;;;;;12.48;2.67;;;13.80;96.70;;;;;;4990081;28;20046;-72
2023/03/27 07:06:05;;;;;;;10.40;2.70;;;13.90;96.70;;;;;;5001742;28;20141;-72
2023/03/27 07:08:55;;;;;;;10.68;3.38;;;13.90;96.70;;;;;;5005029;28;20057;-72
2023/03/27 07:11:22;;;;;;;15.27;2.78;;;13.90;96.70;;;;;;4984746;28;20056;-72
2023/03/27 07:13:57;;;;;;;10.80;4.22;;;13.90;96.70;;;;;;4984797;28;20049;-72
2023/03/27 07:16:27;;;;;;;14.73;5.53;;;13.90;96.70;;;;;;5005284;28;20053;-72
2023/03/27 07:18:56;;;;;;;17.75;6.88;;;13.90;96.70;;;;;;4968991;28;20046;-72
2023/03/27 07:21:28;;;;;;;18.95;7.35;;;14.00;96.70;;;;;;5006156;28;20041;-72
2023/03/27 07:24:00;;;;;;;16.08;7.88;;;14.00;96.70;;;;;;4991795;28;21082;-72
2023/03/27 07:26:36;;;;;;;15.23;7.13;;;14.00;96.70;;;;;;5000998;28;20049;-72
2023/03/27 07:29:21;;;;;;;12.57;5.43;;;14.10;96.70;;;;;;4993081;28;20136;-72
2023/03/27 07:31:53;;;;;;;11.32;4.03;;;14.20;96.70;;;;;;5000652;28;20442;-72
2023/03/27 07:34:49;;;;;;;11.63;3.38;;;14.30;96.70;;;;;;4992704;28;20554;-72
2023/03/27 07:37:56;;;;;;;9.23;2.92;;;14.30;96.70;;;;;;5001551;28;20051;-72
2023/03/27 07:40:45;;;;;;;9.30;2.28;;;14.30;96.70;;;;;;5014627;28;20049;-71
2023/03/27 07:43:28;;;;;;;9.50;2.90;;;14.40;96.70;;;;;;4998391;28;20427;-71
2023/03/27 07:45:58;;;;;;;12.95;2.85;;;14.40;96.70;;;;;;5004525;28;20057;-71
2023/03/27 07:48:27;;;;;;;11.50;2.22;;;14.50;96.70;;;;;;4989947;28;20049;-72
2023/03/27 07:50:57;;;;;;;7.30;1.95;;;14.50;96.70;;;;;;5002289;28;20045;-72
2023/03/27 07:53:28;;;;;;;11.40;1.80;;;14.50;96.70;;;;;;5002663;28;20061;-72
2023/03/27 07:56:17;;;;;;;8.20;2.03;;;14.60;96.70;;;;;;5001051;28;20081;-71
2023/03/27 07:58:47;;;;;;;9.88;2.20;;;14.70;96.70;;;;;;4989202;28;20419;-71
2023/03/27 08:01:20;;;;;;;9.05;1.92;;;14.70;96.70;;;;;;4991178;28;20076;-72
2023/03/27 08:03:48;;;;;;;9.77;2.05;;;14.70;96.70;;;;;;4988363;28;20127;-71
2023/03/27 08:06:18;;;;;;;9.93;2.20;;;14.80;96.70;;;;;;4996021;28;20034;-72
2023/03/27 08:08:46;;;;;;;9.15;2.35;;;14.90;96.70;;;;;;4997568;28;20045;-72
2023/03/27 08:11:17;;;;;;;14.27;2.45;;;14.90;96.70;;;;;;4990862;28;20049;-72
2023/03/27 08:13:57;;;;;;;11.82;2.45;;;15.00;96.70;;;;;;4987335;28;20047;-71
2023/03/27 08:16:28;;;;;;;10.35;2.10;;;15.10;96.70;;;;;;4992423;28;20558;-71
2023/03/27 08:19:00;;;;;;;12.65;2.97;;;15.20;96.70;;;;;;4995571;28;20727;-72
2023/03/27 08:21:30;;;;;;;16.60;3.65;;;15.20;96.70;;;;;;4990362;28;20042;-72
2023/03/27 08:24:00;;;;;;;15.07;3.72;;;15.20;96.70;;;;;;5008070;28;20077;-72
2023/03/27 08:26:29;;;;;;;9.65;2.83;;;15.20;96.70;;;;;;5011712;28;20052;-72
2023/03/27 08:29:00;;;;;;;15.52;3.63;;;15.20;96.70;;;;;;5011341;28;20044;-71
2023/03/27 08:31:30;;;;;;;11.05;2.88;;;15.20;96.70;;;;;;4989948;28;20048;-72
2023/03/27 08:34:00;;;;;;;19.50;3.85;;;15.40;96.70;;;;;;4987883;28;20507;-72
2023/03/27 08:36:39;;;;;;;11.98;2.92;;;15.50;96.70;;;;;;5021033;28;20052;-71
2023/03/27 08:39:07;;;;;;;10.23;2.88;;;15.50;96.70;;;;;;5014415;28;20060;-72
2023/03/27 08:41:51;;;;;;;15.23;2.80;;;15.60;96.70;;;;;;4976217;28;20073;-71
2023/03/27 08:44:29;;;;;;;12.40;3.05;;;15.70;96.70;;;;;;4987800;28;20479;-71
2023/03/27 08:47:01;;;;;;;11.70;2.35;;;15.70;96.70;;;;;;4987380;28;20049;-72
2023/03/27 08:49:36;;;;;;;13.77;3.50;;;15.80;96.70;;;;;;4994651;28;20045;-72
2023/03/27 08:52:20;;;;;;;11.35;3.13;;;15.90;96.70;;;;;;5006652;28;20045;-72
2023/03/27 08:54:57;;;;;;;19.00;3.05;;;16.00;96.70;;;;;;5020049;28;20528;-72
2023/03/27 08:57:36;;;;;;;10.68;2.63;;;16.10;96.70;;;;;;4987547;28;20072;-72
2023/03/27 09:00:21;;;;;;;13.35;4.13;;;16.20;96.70;;;;;;4991842;28;20065;-72
2023/03/27 09:03:03;;;;;;;11.32;2.90;;;16.40;96.70;;;;;;4984117;28;20144;-72
2023/03/27 09:05:35;;;;;;;;;;;16.50;96.70;;;;;;4992927;28;20056;-72
2023/03/27 09:08:09;;;;;;;11.82;2.92;;;16.50;96.70;;;;;;5013647;28;20401;-72
2023/03/27 09:10:43;;;;;;;13.55;3.03;;;16.50;96.70;;;;;;4990664;28;20046;-72
2023/03/27 09:13:32;;;;;;;8.95;2.45;;;16.60;96.70;;;;;;4985021;28;20132;-71
2023/03/27 09:16:03;;;;;;;10.85;2.28;;;16.60;96.70;;;;;;5002760;28;20057;-71
2023/03/27 09:18:35;;;;;;;12.10;3.15;;;16.80;96.70;;;;;;5002981;28;20038;-72
2023/03/27 09:21:13;;;;;;;12.05;2.78;;;16.80;96.70;;;;;;4987529;28;20372;-71
2023/03/27 09:23:44;;;;;;;7.95;1.95;;;16.80;96.70;;;;;;4983585;28;20054;-71
2023/03/27 09:26:18;;;;;;;8.35;2.45;;;16.90;96.70;;;;;;4985548;28;20050;-72
2023/03/27 09:29:24;;;;;;;10.75;2.60;;;16.90;96.70;;;;;;4970139;28;20061;-71
2023/03/27 09:32:02;;;;;;;12.70;3.60;;;17.00;96.70;;;;;;4984890;28;20061;-72
2023/03/27 09:34:32;;;;;;;14.57;2.95;;;17.10;96.70;;;;;;4988107;28;20499;-71
2023/03/27 09:37:01;;;;;;;8.25;1.80;;;17.10;96.70;;;;;;5003027;28;20148;-71
2023/03/27 09:39:32;;;;;;;6.20;1.65;;;17.20;96.70;;;;;;4978319;28;20039;-72
2023/03/27 09:42:19;;;;;;;6.38;1.55;;;17.30;96.70;;;;;;4992123;28;20479;-71
2023/03/27 09:44:55;;;;;;;7.90;1.92;;;17.40;96.70;;;;;;4993901;28;20048;-71
2023/03/27 09:47:31;;;;;;;6.75;1.70;;;17.60;96.70;;;;;;4983692;28;20043;-72
2023/03/27 09:50:20;;;;;;;6.20;1.23;;;17.60;96.70;;;;;;4992773;28;20148;-72
2023/03/27 09:53:09;;;;;;;7.13;1.90;;;17.60;96.70;;;;;;4999354;28;20057;-72
2023/03/27 09:55:51;;;;;;;8.75;1.75;;;17.70;96.70;;;;;;4982895;28;20042;-71
2023/03/27 09:58:34;;;;;;;7.50;1.87;;;17.90;96.70;;;;;;4983190;28;20093;-72
2023/03/27 10:01:12;;;;;;;6.20;1.83;;;17.90;96.70;;;;;;4987312;28;20335;-72
2023/03/27 10:03:47;;;;;;;6.25;2.60;;;18.10;96.70;;;;;;5000032;28;20599;-71
2023/03/27 10:06:25;;;;;;;8.02;1.80;;;18.30;96.70;;;;;;4982763;28;20149;-71
2023/03/27 10:09:18;;;;;;;4.65;1.13;;;18.30;96.70;;;;;;4988449;28;20098;-72
2023/03/27 10:11:49;;;;;;;4.72;1.70;;;18.40;96.70;;;;;;5004186;28;20424;-71
2023/03/27 10:14:25;;;;;;;4.05;1.42;;;18.50;96.70;;;;;;4982708;28;20128;-71
2023/03/27 10:16:55;;;;;;;3.17;1.10;;;18.60;96.70;;;;;;4982357;28;20063;-72
2023/03/27 10:19:28;;;;;;;3.90;1.30;;;18.60;96.70;;;;;;4982758;28;20132;-71
2023/03/27 10:22:03;;;;;;;2.47;1.13;;;18.60;96.70;;;;;;4977768;28;20241;-72
2023/03/27 10:24:33;;;;;;;2.78;0.95;;;18.60;96.70;;;;;;4996378;28;20050;-72
2023/03/27 10:27:42;;;;;;;3.88;0.80;;;18.80;96.70;;;;;;4960431;28;20109;-72
2023/03/27 10:30:30;;;;;;;3.20;0.30;;;18.90;96.70;;;;;;4984897;28;20049;-72
2023/03/27 10:33:30;;;;;;;1.80;0.40;;;18.90;96.70;;;;;;4968548;28;20065;-71
2023/03/27 10:36:17;;;;;;;2.38;0.57;;;18.90;96.70;;;;;;4968466;28;20053;-71
2023/03/27 10:38:52;;;;;;;1.27;0.55;;;19.00;96.70;;;;;;4992179;28;20376;-71
2023/03/27 10:41:35;;;;;;;1.83;0.50;;;19.20;96.70;;;;;;4982656;28;20355;-71
2023/03/27 10:44:12;;;;;;;2.60;0.50;;;19.10;96.70;;;;;;4981982;28;20571;-71
2023/03/27 10:46:45;;;;;;;1.67;0.40;;;19.10;96.70;;;;;;4984055;28;20066;-71
2023/03/27 10:49:24;;;;;;;0.95;0.30;;;19.20;96.70;;;;;;4983168;28;20607;-71
2023/03/27 10:52:02;;;;;;;1.30;0.30;;;19.30;96.70;;;;;;4981815;28;20050;-72
2023/03/27 10:54:57;;;;;;;2.50;0.40;;;19.30;96.70;;;;;;4981901;28;20050;-71
2023/03/27 10:57:33;;;;;;;1.77;0.40;;;19.40;96.70;;;;;;4981978;28;20046;-72
2023/03/27 11:00:10;;;;;;;2.00;0.50;;;19.30;96.70;;;;;;4981859;28;20141;-72
2023/03/27 11:02:52;;;;;;;1.35;0.28;;;19.40;96.70;;;;;;4973910;28;20065;-72
2023/03/27 11:05:25;;;;;;;1.75;0.30;;;19.50;96.70;;;;;;4981743;28;20050;-72
2023/03/27 11:08:01;;;;;;;0.63;0.20;;;19.60;96.70;;;;;;4984369;28;20058;-72
2023/03/27 11:10:33;;;;;;;2.42;0.30;;;19.50;96.70;;;;;;5000118;28;20566;-72
2023/03/27 11:13:08;;;;;;;2.03;0.50;;;19.60;96.70;;;;;;5000138;28;20083;-72
2023/03/27 11:15:41;;;;;;;1.92;0.30;;;19.50;96.70;;;;;;4985724;28;20082;-71
2023/03/27 11:18:36;;;;;;;2.60;0.52;;;19.60;96.70;;;;;;4984843;28;20069;-72
2023/03/27 11:21:11;;;;;;;1.70;0.45;;;19.80;96.70;;;;;;4994747;28;20046;-72
2023/03/27 11:23:57;;;;;;;5.43;0.50;;;19.70;96.70;;;;;;4997527;28;20617;-72
2023/03/27 11:26:41;;;;;;;0.88;0.30;;;19.70;96.70;;;;;;4989361;28;20077;-72
2023/03/27 11:29:19;;;;;;;1.65;0.40;;;19.80;96.70;;;;;;4996407;28;20049;-72
2023/03/27 11:31:52;;;;;;;1.63;0.30;;;19.80;96.70;;;;;;4990705;28;20053;-71
2023/03/27 11:34:51;;;;;;;1.95;0.32;;;19.80;96.70;;;;;;4984467;28;20046;-71
2023/03/27 11:37:45;;;;;;;2.42;0.40;;;19.90;96.70;;;;;;4999983;28;20054;-72
2023/03/27 11:40:19;;;;;;;2.53;0.40;;;19.90;96.70;;;;;;4981544;28;20050;-71
2023/03/27 11:42:54;;;;;;;0.98;0.30;;;20.00;96.70;;;;;;4978367;28;20438;-72
2023/03/27 11:45:26;;;;;;;4.30;1.02;;;20.00;96.70;;;;;;4985232;28;20057;-72
2023/03/27 11:48:23;;;;;;;1.05;0.40;;;20.10;96.70;;;;;;5006298;28;20081;-72
2023/03/27 11:50:58;;;;;;;3.97;0.55;;;20.30;96.70;;;;;;4983336;28;20046;-71
2023/03/27 11:53:56;;;;;;;1.23;0.32;;;20.20;96.70;;;;;;4980572;28;20427;-72
2023/03/27 11:56:54;;;;;;;4.60;0.88;;;20.30;96.70;;;;;;4992544;28;20140;-71
2023/03/27 12:00:17;;;;;;;2.03;0.40;;;20.30;96.70;;;;;;4980736;28;20522;-71
2023/03/27 12:03:22;;;;;;;1.83;0.40;;;20.30;96.70;;;;;;5005590;28;20088;-71
2023/03/27 12:06:05;;;;;;;1.17;0.38;;;20.30;96.70;;;;;;5002615;28;20545;-71
2023/03/27 12:09:05;;;;;;;3.75;0.57;;;20.20;96.70;;;;;;5002759;28;20049;-71
2023/03/27 12:11:49;;;;;;;0.88;0.30;;;20.20;96.70;;;;;;4994316;28;20149;-71
2023/03/27 12:14:44;;;;;;;4.30;0.32;;;20.10;96.70;;;;;;4987613;28;20127;-71
2023/03/27 12:17:53;;;;;;;1.58;0.50;;;19.90;96.70;;;;;;4993892;28;20046;-71
2023/03/27 12:20:51;;;;;;;1.70;0.40;;;19.90;96.70;;;;;;4999920;28;20136;-72
2023/03/27 12:23:43;;;;;;;3.00;0.60;;;20.10;96.70;;;;;;4997200;28;20050;-72
2023/03/27 12:26:57;;;;;;;2.10;0.35;;;20.20;96.70;;;;;;4996348;28;20057;-72
2023/03/27 12:29:58;;;;;;;2.83;0.50;;;20.40;96.70;;;;;;5006222;28;20058;-72
2023/03/27 12:33:06;;;;;;;1.60;0.50;;;20.80;96.70;;;;;;5006676;28;20140;-72
2023/03/27 12:35:40;;;;;;;2.80;0.40;;;20.90;96.70;;;;;;4969034;28;20140;-72
2023/03/27 12:38:19;;;;;;;2.08;0.20;;;21.00;96.70;;;;;;5004010;28;20046;-71
2023/03/27 12:40:59;;;;;;;3.03;0.50;;;21.00;96.70;;;;;;5021664;28;20107;-72
2023/03/27 12:43:38;;;;;;;2.13;0.20;;;21.00;96.70;;;;;;5006642;28;20049;-72
2023/03/27 12:46:35;;;;;;;1.23;0.28;;;21.10;96.70;;;;;;5012040;28;20042;-71
2023/03/27 12:49:40;;;;;;;1.58;0.25;;;21.30;96.70;;;;;;5004987;28;20042;-72
2023/03/27 12:52:25;;;;;;;0.60;0.32;;;21.60;96.70;;;;;;4987090;28;20141;-72
2023/03/27 12:55:19;;;;;;;1.65;0.40;;;21.50;96.70;;;;;;4996133;28;20054;-72
2023/03/27 12:57:57;;;;;;;3.13;0.45;;;21.40;96.70;;;;;;4991884;28;20470;-72
2023/03/27 13:00:57;;;;;;;2.50;0.40;;;21.60;96.70;;;;;;4996251;28;20056;-72
2023/03/27 13:04:04;;;;;;;4.10;0.55;;;21.60;96.70;;;;;;5005590;28;20066;-72
2023/03/27 13:06:45;;;;;;;0.70;0.30;;;21.60;96.70;;;;;;4969671;28;20195;-72
2023/03/27 13:09:27;;;;;;;2.05;0.40;;;21.50;96.70;;;;;;4986956;28;20667;-72
2023/03/27 13:12:19;;;;;;;3.67;0.50;;;21.50;96.70;;;;;;4987883;28;20473;-72
2023/03/27 13:15:05;;;;;;;1.55;0.40;;;21.60;96.70;;;;;;4986784;28;20053;-71
2023/03/27 13:18:00;;;;;;;1.08;0.20;;;21.10;96.70;;;;;;4987771;28;20058;-72
2023/03/27 13:20:44;;;;;;;2.08;0.35;;;21.20;96.70;;;;;;4987228;28;20046;-72
2023/03/27 13:23:30;;;;;;;3.22;0.20;;;21.30;96.70;;;;;;4978585;28;20057;-72
2023/03/27 13:26:10;;;;;;;1.77;0.20;;;21.50;96.30;;;;;;5001555;28;20538;-71
2023/03/27 13:28:47;;;;;;;1.75;0.38;;;21.40;96.70;;;;;;4988585;28;20111;-71
2023/03/27 13:31:47;;;;;;;3.13;0.40;;;21.20;96.70;;;;;;4986824;28;20058;-72
2023/03/27 13:34:40;;;;;;;1.35;0.30;;;21.30;96.70;;;;;;4985559;28;20060;-72
2023/03/27 13:37:59;;;;;;;3.30;0.60;;;21.20;96.70;;;;;;5013926;28;20491;-72
2023/03/27 13:40:52;;;;;;;1.92;0.13;;;21.30;96.70;;;;;;4984606;28;20124;-71